createdAt,value
2019-05-21T00:02:25.004Z,51.14
2019-05-21T00:04:55.319Z,51.14
2019-05-21T00:07:25.950Z,51.17
2019-05-21T00:09:56.376Z,51.11
2019-05-21T00:12:26.662Z,51.09
2019-05-21T00:14:56.914Z,51.07
2019-05-21T00:17:27.122Z,51.07
2019-05-21T00:19:57.380Z,51.07
2019-05-21T00:22:27.648Z,51.03
2019-05-21T00:24:57.910Z,51.00
2019-05-21T00:27:28.185Z,50.95
2019-05-21T00:30:34.968Z,50.95
2019-05-21T00:33:41.431Z,50.95
2019-05-21T00:37:07.740Z,50.92
2019-05-21T00:40:17.415Z,50.90
2019-05-21T00:42:47.667Z,50.91
2019-05-21T00:45:17.964Z,50.91
2019-05-21T00:47:48.753Z,50.90
2019-05-21T00:50:19.017Z,50.84
2019-05-21T00:52:49.337Z,50.85
2019-05-21T00:55:19.599Z,50.80
2019-05-21T00:57:49.883Z,50.80
2019-05-21T01:00:20.195Z,50.78
2019-05-21T01:02:50.420Z,50.78
2019-05-21T01:05:20.673Z,50.74
2019-05-21T01:07:50.965Z,50.74
2019-05-21T01:10:21.259Z,50.73
2019-05-21T01:12:49.896Z,50.68
2019-05-21T01:15:18.481Z,50.68
2019-05-21T01:17:49.284Z,50.68
2019-05-21T01:20:19.496Z,50.66
2019-05-21T01:22:49.724Z,50.67
2019-05-21T01:25:19.976Z,50.63
2019-05-21T01:27:50.660Z,50.64
2019-05-21T01:30:20.989Z,50.66
2019-05-21T01:32:51.254Z,50.61
2019-05-21T01:35:21.532Z,50.61
2019-05-21T01:37:51.962Z,50.60
2019-05-21T01:40:22.225Z,50.57
2019-05-21T01:42:52.513Z,50.55
2019-05-21T01:45:22.653Z,50.54
2019-05-21T01:47:52.985Z,50.52
2019-05-21T01:50:23.267Z,50.48
2019-05-21T01:52:53.491Z,50.49
2019-05-21T01:55:24.387Z,50.46
2019-05-21T01:57:54.575Z,50.43
2019-05-21T02:00:24.800Z,50.39
2019-05-21T02:02:55.127Z,50.38
2019-05-21T02:05:33.184Z,50.37
2019-05-21T02:07:57.434Z,50.35
2019-05-21T02:10:27.730Z,50.31
2019-05-21T02:12:58.238Z,50.31
2019-05-21T02:15:28.475Z,50.30
2019-05-21T02:17:58.727Z,50.31
2019-05-21T02:20:29.020Z,50.26
2019-05-21T02:22:59.407Z,50.32
2019-05-21T02:25:29.635Z,50.25
2019-05-21T02:27:59.993Z,50.25
2019-05-21T02:30:30.317Z,50.25
2019-05-21T02:33:00.633Z,50.20
2019-05-21T02:35:30.961Z,50.23
2019-05-21T02:38:02.193Z,50.21
2019-05-21T02:40:32.345Z,50.16
2019-05-21T02:43:06.836Z,50.20
2019-05-21T02:45:37.156Z,50.17
2019-05-21T02:48:09.294Z,50.14
2019-05-21T02:50:40.153Z,50.16
2019-05-21T02:53:10.476Z,50.13
2019-05-21T02:55:40.669Z,50.10
2019-05-21T02:58:10.854Z,50.08
2019-05-21T03:01:02.783Z,50.09
2019-05-21T03:03:34.000Z,50.07
2019-05-21T03:06:13.830Z,50.01
2019-05-21T03:08:37.217Z,50.07
2019-05-21T03:11:07.477Z,50.03
2019-05-21T03:13:37.835Z,50.00
2019-05-21T03:16:08.412Z,50.01
2019-05-21T03:18:38.637Z,49.98
2019-05-21T03:21:09.017Z,49.99
2019-05-21T03:23:39.310Z,49.96
2019-05-21T03:26:09.556Z,49.97
2019-05-21T03:28:39.817Z,49.96
2019-05-21T03:31:09.994Z,49.96
2019-05-21T03:33:40.330Z,49.94
2019-05-21T03:36:10.515Z,49.93
2019-05-21T03:38:40.833Z,49.91
2019-05-21T03:41:12.106Z,49.88
2019-05-21T03:43:42.406Z,49.89
2019-05-21T03:46:12.652Z,49.84
2019-05-21T03:48:42.903Z,49.86
2019-05-21T03:51:13.191Z,49.85
2019-05-21T03:53:43.444Z,49.82
2019-05-21T03:56:13.705Z,49.82
2019-05-21T03:58:44.020Z,49.81
2019-05-21T04:01:14.378Z,49.81
2019-05-21T04:03:44.623Z,49.80
2019-05-21T04:06:14.858Z,49.80
2019-05-21T04:08:46.164Z,49.79
2019-05-21T04:11:16.388Z,49.80
2019-05-21T04:13:46.587Z,49.77
2019-05-21T04:16:28.928Z,49.73
2019-05-21T04:19:05.723Z,49.80
2019-05-21T04:21:37.079Z,49.79
2019-05-21T04:24:08.954Z,49.75
2019-05-21T04:26:39.316Z,49.72
2019-05-21T04:29:09.745Z,49.77
2019-05-21T04:31:40.039Z,49.76
2019-05-21T04:34:10.740Z,49.77
2019-05-21T04:36:41.084Z,49.76
2019-05-21T04:39:11.289Z,49.76
2019-05-21T04:41:41.528Z,49.73
2019-05-21T04:44:11.698Z,49.68
2019-05-21T04:46:41.963Z,49.70
2019-05-21T04:49:12.693Z,49.70
2019-05-21T04:51:42.863Z,49.72
2019-05-21T04:54:13.110Z,49.71
2019-05-21T04:56:43.361Z,49.71
2019-05-21T04:59:13.617Z,49.69
2019-05-21T05:01:43.943Z,49.65
2019-05-21T05:04:14.227Z,49.51
2019-05-21T05:06:44.560Z,49.52
2019-05-21T05:09:14.713Z,49.57
2019-05-21T05:11:45.027Z,49.61
2019-05-21T05:14:15.311Z,49.61
2019-05-21T05:16:45.572Z,49.56
2019-05-21T05:19:15.901Z,49.46
2019-05-21T05:21:46.130Z,49.56
2019-05-21T05:24:16.495Z,49.12
2019-05-21T05:26:46.764Z,49.07
2019-05-21T05:29:17.051Z,49.16
2019-05-21T05:31:47.295Z,49.24
2019-05-21T05:34:18.552Z,49.28
2019-05-21T05:36:48.878Z,49.31
2019-05-21T05:39:19.201Z,49.32
2019-05-21T05:41:49.482Z,49.36
2019-05-21T05:44:19.637Z,49.24
2019-05-21T05:46:49.932Z,49.16
2019-05-21T05:49:25.278Z,49.24
2019-05-21T05:51:55.581Z,49.18
2019-05-21T05:54:25.784Z,49.19
2019-05-21T05:56:56.132Z,49.19
2019-05-21T05:59:26.434Z,49.21
2019-05-21T06:01:56.951Z,49.23
2019-05-21T06:04:30.427Z,49.25
2019-05-21T06:06:59.081Z,49.25
2019-05-21T06:09:29.623Z,48.29
2019-05-21T06:11:59.839Z,47.21
2019-05-21T06:14:30.237Z,47.51
2019-05-21T06:17:01.462Z,47.92
2019-05-21T06:19:31.811Z,48.25
2019-05-21T06:22:02.215Z,48.43
2019-05-21T06:24:32.479Z,48.57
2019-05-21T06:27:02.696Z,48.63
2019-05-21T06:29:32.956Z,48.60
2019-05-21T06:32:03.130Z,48.30
2019-05-21T06:34:33.464Z,47.98
2019-05-21T06:37:03.838Z,48.12
2019-05-21T06:39:34.022Z,48.20
2019-05-21T06:42:04.525Z,48.26
2019-05-21T06:44:34.785Z,48.28
2019-05-21T06:47:04.947Z,48.34
2019-05-21T06:49:36.308Z,48.33
2019-05-21T06:52:06.641Z,48.34
2019-05-21T06:54:37.024Z,48.28
2019-05-21T06:57:07.295Z,48.25
2019-05-21T06:59:37.693Z,48.20
2019-05-21T07:02:07.955Z,48.21
2019-05-21T07:04:38.185Z,48.16
2019-05-21T07:07:08.484Z,48.12
2019-05-21T07:09:38.872Z,48.18
2019-05-21T07:12:09.148Z,48.22
2019-05-21T07:14:39.380Z,47.98
2019-05-21T07:17:09.877Z,47.69
2019-05-21T07:19:40.227Z,47.72
2019-05-21T07:22:13.076Z,47.86
2019-05-21T07:24:42.543Z,48.02
2019-05-21T07:27:12.735Z,48.00
2019-05-21T07:29:43.937Z,48.28
2019-05-21T07:32:14.230Z,48.28
2019-05-21T07:34:44.573Z,48.11
2019-05-21T07:37:14.882Z,48.26
2019-05-21T07:39:45.253Z,48.25
2019-05-21T07:42:15.526Z,48.19
2019-05-21T07:44:45.812Z,48.11
2019-05-21T07:47:17.600Z,48.10
2019-05-21T07:49:47.955Z,48.11
2019-05-21T07:52:18.453Z,48.13
2019-05-21T07:54:48.721Z,48.10
2019-05-21T07:57:18.978Z,48.02
2019-05-21T07:59:49.303Z,47.95
2019-05-21T08:02:19.538Z,47.82
2019-05-21T08:04:49.798Z,47.73
2019-05-21T08:07:20.181Z,47.74
2019-05-21T08:09:50.518Z,47.66
2019-05-21T08:12:37.283Z,47.40
2019-05-21T08:14:52.734Z,47.21
2019-05-21T08:17:22.967Z,47.12
2019-05-21T08:19:53.300Z,46.66
2019-05-21T08:22:23.547Z,46.60
2019-05-21T08:24:53.915Z,46.18
2019-05-21T08:27:24.162Z,46.34
2019-05-21T08:29:54.323Z,46.41
2019-05-21T08:32:24.671Z,46.65
2019-05-21T08:34:54.957Z,46.59
2019-05-21T08:37:25.143Z,46.69
2019-05-21T08:39:55.800Z,46.76
2019-05-21T08:42:26.054Z,46.78
2019-05-21T08:44:56.306Z,46.69
2019-05-21T08:47:26.572Z,47.00
2019-05-21T08:49:56.930Z,47.20
2019-05-21T08:52:27.265Z,47.29
2019-05-21T08:54:57.632Z,47.37
2019-05-21T08:57:27.902Z,47.28
2019-05-21T08:59:58.269Z,47.46
2019-05-21T09:02:28.503Z,47.48
2019-05-21T09:04:58.858Z,47.56
2019-05-21T09:07:29.249Z,47.55
2019-05-21T09:09:59.625Z,47.50
2019-05-21T09:12:29.969Z,47.49
2019-05-21T09:15:00.189Z,47.56
2019-05-21T09:17:30.539Z,47.68
2019-05-21T09:20:00.809Z,47.87
2019-05-21T09:22:31.351Z,47.88
2019-05-21T09:25:01.767Z,47.75
2019-05-21T09:27:32.192Z,47.70
2019-05-21T09:30:02.544Z,47.82
2019-05-21T09:32:32.844Z,47.92
2019-05-21T09:35:03.288Z,47.89
2019-05-21T09:37:33.541Z,47.92
2019-05-21T09:40:04.448Z,48.04
2019-05-21T09:42:34.827Z,47.98
2019-05-21T09:45:05.440Z,48.13
2019-05-21T09:47:35.952Z,48.15
2019-05-21T09:50:06.825Z,48.18
2019-05-21T09:52:38.120Z,48.25
2019-05-21T09:55:08.708Z,48.32
2019-05-21T09:57:55.275Z,48.36
2019-05-21T10:00:46.924Z,48.44
2019-05-21T10:03:18.905Z,48.58
2019-05-21T10:05:49.201Z,48.81
2019-05-21T10:08:19.577Z,48.97
2019-05-21T10:10:49.858Z,48.93
2019-05-21T10:13:20.173Z,48.93
2019-05-21T10:15:50.553Z,48.90
2019-05-21T10:18:20.771Z,48.85
2019-05-21T10:20:50.997Z,48.83
2019-05-21T10:23:21.841Z,48.87
2019-05-21T10:25:52.117Z,48.89
2019-05-21T10:28:24.117Z,48.81
2019-05-21T10:30:54.425Z,48.72
2019-05-21T10:33:26.480Z,48.62
2019-05-21T10:35:56.706Z,48.50
2019-05-21T10:38:27.007Z,48.18
2019-05-21T10:40:57.218Z,48.05
2019-05-21T10:43:27.883Z,48.14
2019-05-21T10:45:58.210Z,48.31
2019-05-21T10:48:28.601Z,48.37
2019-05-21T10:50:59.000Z,48.54
2019-05-21T10:53:29.253Z,48.76
2019-05-21T10:55:59.510Z,48.97
2019-05-21T10:58:29.854Z,48.81
2019-05-21T11:01:10.205Z,48.49
2019-05-21T11:03:58.442Z,48.31
2019-05-21T11:06:28.746Z,48.81
2019-05-21T11:08:59.022Z,48.71
2019-05-21T11:11:29.302Z,48.83
2019-05-21T11:13:59.652Z,48.77
2019-05-21T11:16:30.051Z,48.44
2019-05-21T11:19:00.316Z,48.12
2019-05-21T11:21:30.669Z,48.16
2019-05-21T11:24:01.083Z,48.07
2019-05-21T11:26:31.720Z,48.26
2019-05-21T11:29:02.208Z,48.35
2019-05-21T11:31:33.451Z,48.67
2019-05-21T11:34:03.876Z,48.84
2019-05-21T11:36:35.056Z,48.89
2019-05-21T11:39:07.397Z,49.04
2019-05-21T11:41:40.509Z,49.07
2019-05-21T11:44:10.915Z,48.96
2019-05-21T11:46:41.521Z,48.81
2019-05-21T11:49:12.418Z,48.66
2019-05-21T11:51:42.840Z,48.57
2019-05-21T11:54:13.345Z,48.40
2019-05-21T11:56:43.744Z,48.25
2019-05-21T11:59:14.232Z,48.25
2019-05-21T12:01:45.246Z,48.22
2019-05-21T12:04:15.887Z,48.24
2019-05-21T12:06:46.173Z,48.16
2019-05-21T12:09:17.197Z,48.24
2019-05-21T12:11:47.611Z,48.24
2019-05-21T12:14:18.740Z,48.39
2019-05-21T12:16:49.354Z,48.58
2019-05-21T12:19:20.133Z,48.67
2019-05-21T12:21:50.954Z,48.50
2019-05-21T12:24:21.589Z,48.38
2019-05-21T12:26:52.070Z,48.26
2019-05-21T12:29:22.469Z,48.19
2019-05-21T12:31:52.719Z,48.38
2019-05-21T12:34:21.817Z,48.59
2019-05-21T12:36:50.395Z,48.55
2019-05-21T12:39:19.380Z,48.52
2019-05-21T12:41:47.937Z,48.55
2019-05-21T12:44:20.933Z,48.54
2019-05-21T12:46:51.471Z,48.72
2019-05-21T12:49:21.732Z,48.78
2019-05-21T12:51:52.317Z,48.93
2019-05-21T12:54:22.617Z,48.85
2019-05-21T12:56:54.270Z,49.03
2019-05-21T12:59:24.977Z,48.88
2019-05-21T13:01:55.791Z,48.98
2019-05-21T13:04:26.152Z,49.11
2019-05-21T13:06:56.419Z,49.26
2019-05-21T13:09:32.694Z,49.02
2019-05-21T13:11:58.949Z,48.93
2019-05-21T13:14:29.234Z,49.04
2019-05-21T13:16:59.396Z,49.01
2019-05-21T13:19:30.526Z,49.10
2019-05-21T13:22:01.367Z,49.13
2019-05-21T13:24:31.681Z,49.17
2019-05-21T13:27:02.013Z,49.16
2019-05-21T13:29:33.756Z,49.13
2019-05-21T13:32:04.062Z,49.13
2019-05-21T13:34:34.312Z,49.34
2019-05-21T13:37:04.527Z,49.12
2019-05-21T13:39:48.782Z,48.87
2019-05-21T13:42:08.231Z,48.77
2019-05-21T13:44:38.569Z,48.77
2019-05-21T13:47:08.781Z,48.71
2019-05-21T13:49:39.420Z,48.80
2019-05-21T13:52:10.163Z,49.08
2019-05-21T13:54:42.137Z,48.97
2019-05-21T13:57:12.627Z,48.77
2019-05-21T13:59:43.496Z,48.83
2019-05-21T14:02:14.410Z,48.68
2019-05-21T14:04:45.238Z,48.51
2019-05-21T14:07:17.080Z,48.38
2019-05-21T14:09:47.668Z,48.27
2019-05-21T14:12:18.841Z,48.43
2019-05-21T14:14:50.214Z,48.55
2019-05-21T14:17:21.119Z,48.48
2019-05-21T14:19:51.834Z,48.35
2019-05-21T14:22:22.581Z,48.03
2019-05-21T14:24:52.811Z,47.88
2019-05-21T14:27:24.248Z,47.75
2019-05-21T14:29:56.223Z,47.66
2019-05-21T14:32:35.303Z,47.59
2019-05-21T14:35:06.699Z,47.69
2019-05-21T14:37:37.056Z,47.66
2019-05-21T14:40:08.433Z,47.79
2019-05-21T14:42:38.920Z,47.81
2019-05-21T14:45:10.405Z,48.01
2019-05-21T14:47:41.524Z,48.09
2019-05-21T14:50:11.863Z,48.14
2019-05-21T14:52:42.473Z,48.14
2019-05-21T14:55:13.456Z,48.18
2019-05-21T14:57:44.246Z,48.18
2019-05-21T15:00:23.618Z,48.15
2019-05-21T15:02:54.101Z,48.10
2019-05-21T15:05:24.982Z,48.05
2019-05-21T15:07:55.295Z,48.13
2019-05-21T15:10:25.673Z,48.14
2019-05-21T15:12:56.015Z,48.14
2019-05-21T15:15:32.493Z,48.10
2019-05-21T15:18:02.779Z,48.06
2019-05-21T15:20:52.218Z,48.01
2019-05-21T15:23:24.506Z,48.09
2019-05-21T15:25:56.436Z,48.28
2019-05-21T15:28:27.677Z,48.16
2019-05-21T15:30:58.695Z,48.16
2019-05-21T15:33:30.298Z,48.19
2019-05-21T15:36:00.656Z,48.23
2019-05-21T15:38:48.459Z,48.32
2019-05-21T15:41:10.479Z,48.40
2019-05-21T15:43:36.112Z,48.45
2019-05-21T15:46:27.329Z,48.51
2019-05-21T15:48:57.654Z,48.54
2019-05-21T15:51:27.815Z,48.64
2019-05-21T15:53:58.067Z,48.71
2019-05-21T15:56:28.800Z,48.70
2019-05-21T15:58:59.054Z,48.74
2019-05-21T16:01:30.517Z,48.73
2019-05-21T16:04:00.748Z,48.73
2019-05-21T16:06:31.026Z,48.79
2019-05-21T16:09:01.242Z,48.82
2019-05-21T16:11:32.798Z,48.84
2019-05-21T16:14:03.324Z,48.89
2019-05-21T16:16:33.667Z,48.90
2019-05-21T16:19:03.988Z,48.92
2019-05-21T16:21:34.278Z,48.95
2019-05-21T16:24:04.559Z,48.96
2019-05-21T16:26:35.302Z,48.96
2019-05-21T16:29:07.030Z,48.98
2019-05-21T16:31:37.681Z,48.97
2019-05-21T16:34:08.138Z,48.97
2019-05-21T16:36:38.466Z,48.99
2019-05-21T16:39:09.199Z,49.05
2019-05-21T16:41:44.857Z,49.02
2019-05-21T16:44:11.720Z,49.06
2019-05-21T16:46:42.788Z,49.07
2019-05-21T16:49:13.995Z,49.10
2019-05-21T16:51:44.798Z,49.09
2019-05-21T16:54:15.751Z,49.09
2019-05-21T16:56:46.350Z,49.09
2019-05-21T16:59:17.169Z,49.09
2019-05-21T17:01:47.413Z,49.10
2019-05-21T17:04:17.787Z,49.10
2019-05-21T17:06:48.218Z,49.09
2019-05-21T17:09:19.096Z,49.10
2019-05-21T17:11:59.381Z,49.09
2019-05-21T17:14:23.054Z,49.12
2019-05-21T17:16:53.813Z,49.10
2019-05-21T17:19:24.149Z,49.12
2019-05-21T17:21:54.362Z,49.13
2019-05-21T17:24:25.710Z,49.16
2019-05-21T17:26:56.202Z,49.17
2019-05-21T17:29:26.482Z,49.17
2019-05-21T17:31:56.955Z,49.19
2019-05-21T17:34:27.208Z,49.18
2019-05-21T17:36:57.576Z,49.17
2019-05-21T17:39:27.924Z,49.17
2019-05-21T17:41:58.285Z,49.20
2019-05-21T17:44:29.465Z,49.17
2019-05-21T17:46:59.754Z,49.19
2019-05-21T17:49:29.972Z,49.16
2019-05-21T17:52:01.272Z,49.16
2019-05-21T17:54:31.556Z,49.16
2019-05-21T17:57:01.784Z,49.16
2019-05-21T17:59:32.188Z,49.22
2019-05-21T18:02:04.130Z,49.26
2019-05-21T18:04:34.662Z,49.30
2019-05-21T18:07:05.910Z,49.28
2019-05-21T18:09:37.174Z,49.29
2019-05-21T18:12:08.693Z,49.29
2019-05-21T18:14:39.515Z,49.30
2019-05-21T18:17:13.637Z,49.31
2019-05-21T18:19:44.327Z,49.30
2019-05-21T18:22:18.334Z,49.32
2019-05-21T18:24:49.756Z,49.32
2019-05-21T18:27:20.285Z,49.33
2019-05-21T18:29:50.628Z,49.40
2019-05-21T18:32:20.781Z,49.33
2019-05-21T18:34:52.016Z,49.26
2019-05-21T18:37:22.722Z,49.31
2019-05-21T18:39:53.082Z,49.30
2019-05-21T18:42:23.408Z,49.29
2019-05-21T18:44:53.804Z,49.29
2019-05-21T18:47:24.182Z,49.35
2019-05-21T18:49:54.439Z,49.31
2019-05-21T18:52:24.891Z,49.25
2019-05-21T18:54:56.187Z,49.20
2019-05-21T18:57:26.473Z,49.18
2019-05-21T18:59:56.758Z,49.17
2019-05-21T19:02:27.151Z,49.13
2019-05-21T19:04:57.749Z,49.13
2019-05-21T19:07:28.129Z,49.14
2019-05-21T19:10:00.907Z,49.12
2019-05-21T19:12:37.970Z,49.11
2019-05-21T19:15:03.258Z,49.13
2019-05-21T19:17:35.879Z,49.21
2019-05-21T19:20:09.755Z,49.25
2019-05-21T19:22:40.151Z,49.31
2019-05-21T19:25:10.699Z,49.33
2019-05-21T19:27:41.214Z,49.34
2019-05-21T19:30:11.737Z,49.36
2019-05-21T19:32:42.298Z,49.43
2019-05-21T19:35:12.976Z,49.38
2019-05-21T19:37:43.554Z,49.42
2019-05-21T19:40:13.839Z,49.50
2019-05-21T19:42:54.254Z,49.49
2019-05-21T19:45:18.876Z,49.46
2019-05-21T19:47:49.259Z,49.60
2019-05-21T19:50:19.471Z,49.64
2019-05-21T19:52:50.063Z,49.68
2019-05-21T19:55:20.369Z,49.63
2019-05-21T19:57:51.686Z,49.49
2019-05-21T20:00:21.987Z,49.43
2019-05-21T20:03:01.044Z,49.51
2019-05-21T20:05:31.436Z,49.12
2019-05-21T20:08:01.857Z,49.08
2019-05-21T20:10:34.267Z,49.09
2019-05-21T20:13:04.988Z,49.10
2019-05-21T20:15:35.623Z,49.08
2019-05-21T20:18:07.709Z,49.07
2019-05-21T20:20:41.873Z,49.03
2019-05-21T20:23:13.877Z,49.00
2019-05-21T20:25:56.000Z,49.07
2019-05-21T20:28:17.339Z,49.14
2019-05-21T20:30:48.857Z,49.08
2019-05-21T20:33:19.160Z,49.07
2019-05-21T20:35:49.700Z,49.09
2019-05-21T20:38:20.276Z,49.10
2019-05-21T20:40:50.668Z,49.10
2019-05-21T20:43:21.248Z,49.13
2019-05-21T20:45:51.838Z,49.14
2019-05-21T20:48:26.299Z,49.16
2019-05-21T20:50:56.696Z,49.17
2019-05-21T20:53:27.301Z,49.20
2019-05-21T20:55:57.892Z,49.30
2019-05-21T20:58:28.440Z,49.37
2019-05-21T21:01:07.690Z,49.49
2019-05-21T21:03:39.774Z,49.59
2019-05-21T21:06:10.899Z,49.60
2019-05-21T21:08:41.211Z,49.63
2019-05-21T21:11:13.378Z,49.67
2019-05-21T21:13:44.580Z,49.71
2019-05-21T21:16:15.061Z,49.75
2019-05-21T21:18:46.115Z,49.84
2019-05-21T21:21:16.761Z,49.83
2019-05-21T21:23:49.108Z,49.82
2019-05-21T21:26:19.502Z,49.81
2019-05-21T21:28:49.777Z,49.84
2019-05-21T21:31:20.242Z,49.93
2019-05-21T21:33:50.587Z,49.95
2019-05-21T21:36:21.232Z,49.94
2019-05-21T21:38:51.396Z,49.96
2019-05-21T21:41:21.813Z,50.02
2019-05-21T21:43:52.483Z,50.09
2019-05-21T21:46:22.818Z,50.11
2019-05-21T21:48:53.134Z,50.17
2019-05-21T21:51:36.979Z,50.22
2019-05-21T21:54:36.090Z,50.27
2019-05-21T21:57:21.701Z,50.40
2019-05-21T21:59:58.712Z,50.50
2019-05-21T22:02:39.315Z,50.58
2019-05-21T22:05:18.142Z,50.75
2019-05-21T22:07:58.623Z,50.91
2019-05-21T22:10:30.531Z,50.86
2019-05-21T22:13:26.994Z,50.99
2019-05-21T22:16:00.155Z,50.95
2019-05-21T22:18:30.565Z,51.07
2019-05-21T22:21:01.344Z,51.07
2019-05-21T22:23:31.740Z,51.08
2019-05-21T22:26:02.853Z,51.13
2019-05-21T22:28:33.206Z,51.18
2019-05-21T22:31:03.710Z,51.15
2019-05-21T22:33:34.233Z,51.18
2019-05-21T22:36:04.823Z,51.21
2019-05-21T22:38:35.180Z,51.26
2019-05-21T22:41:05.553Z,51.25
2019-05-21T22:43:35.867Z,51.28
2019-05-21T22:46:06.075Z,51.27
2019-05-21T22:48:37.476Z,51.32
2019-05-21T22:51:08.909Z,51.34
2019-05-21T22:53:39.843Z,51.35
2019-05-21T22:56:10.125Z,51.34
2019-05-21T22:58:41.492Z,51.35
2019-05-21T23:01:12.446Z,51.37
2019-05-21T23:03:42.806Z,51.38
2019-05-21T23:06:13.163Z,51.38
2019-05-21T23:08:45.064Z,51.37
2019-05-21T23:11:16.425Z,51.40
2019-05-21T23:13:46.691Z,51.43
2019-05-21T23:16:17.635Z,51.40
2019-05-21T23:18:56.625Z,51.41
2019-05-21T23:21:40.457Z,51.46
2019-05-21T23:24:17.071Z,51.48
2019-05-21T23:26:47.674Z,51.45
2019-05-21T23:29:19.026Z,51.46
2019-05-21T23:31:49.290Z,51.42
2019-05-21T23:34:19.511Z,51.41
2019-05-21T23:36:51.643Z,51.42
2019-05-21T23:39:25.589Z,51.41
2019-05-21T23:41:56.114Z,51.42
2019-05-21T23:44:26.880Z,51.42
2019-05-21T23:46:57.412Z,51.43
2019-05-21T23:49:27.620Z,51.42
2019-05-21T23:51:57.882Z,51.43
2019-05-21T23:54:28.307Z,51.43
2019-05-21T23:56:59.425Z,51.42
2019-05-21T23:59:29.773Z,51.43
